Tiempo atmosférico en la estación meteorológica de VilagarcÍa de Arousa, Pontevedra (32 m.)



Fecha
DESCASC
Temp. máxima en grados centígrados (hora)
DESCASC
Temp. mínima en grados centígrados (hora)
DESCASC
Temp. media en grados centígrados
DESCASC
Racha de viento máxima en m/sg (hora)
DESCASC
Velocidad máxima media en intervalos de 10 minutos(hora)
DESCASC
Precipitaciones diarias en mm
DESCASC
Precipitaciones de 00:00 a 06:00 en mm
DESCASC
Precipitaciones de 06:00 a 12:00 en mm
DESCASC
Precipitaciones de 12:00 a 18:00 en mm
DESCASC
Precipitaciones de 18:00 a 24:00 en mm
DESCASC
20-10-2019 15.6 (18:10) 8.2 (09:20) 11.9 4.72 (13:30) 2.78 (14:10) 2 0.2 0.2 1.6 0
19-10-2019 14.7 (00:20) 11.6 (23:59) 13.2 6.67 (16:00) 3.61 (16:40) 34.4 6.8 22.4 3.2 2
18-10-2019 17.1 (14:30) 13.6 (04:30) 15.4 10.83 (17:10) 5.83 (17:00) 27 0.6 0.8 0.8 24.8
17-10-2019 17.1 (01:50) 13.8 (00:00) 15.5 8.89 (00:30) 4.72 (00:30) 2.2 2 0.2 0 0
16-10-2019 17.4 (18:50) 15.8 (00:00) 16.6 17.78 (18:50) 9.44 (18:40) 49 9.4 6.2 14.2 19.2
15-10-2019 17.6 (16:20) 10.1 (00:00) 13.9 15 (18:20) 6.39 (18:20) 6.4 0 0.4 1.4 4.6
14-10-2019 16.3 (16:20) 12.1 (00:00) 14.2 12.22 (16:00) 7.22 (16:00) 20.6 4 15.4 0.6 0.6
13-10-2019 18.6 (01:50) 13.5 (00:00) 16.1 17.5 (06:50) 8.89 (06:50) 32.4 13.8 2.4 3.6 12.6
12-10-2019 19.9 (13:50) 12.9 (00:00) 16.4 11.11 (23:40) 5 (18:00) 0 0 0 0 0
10-10-2019 23.7 (17:50) 11.7 (00:00) 17.7 9.17 (14:50) 4.72 (13:20) 0 0 0 0 0
09-10-2019 20.7 (18:30) 10.4 (00:00) 15.6 6.67 (16:00) 4.17 (16:10) 0 0 0 0 0
08-10-2019 20.1 (15:30) 13.6 (00:00) 16.9 7.5 (13:10) 3.61 (14:10) 3 0 2.6 0.4 0
07-10-2019 23.5 (16:40) 11.6 (00:00) 17.6 5 (17:30) 3.33 (17:50) 0 0 0 0 0
06-10-2019 22.6 (16:40) 14.8 (00:00) 18.7 4.44 (14:50) 3.33 (15:00) 0.8 0.8 0 0 0
05-10-2019 20.6 (16:30) 13 (01:30) 16.8 5.83 (17:10) 3.89 (16:40) 0 0 0 0 0
04-10-2019 21.5 (16:50) 13.7 (00:00) 17.6 6.11 (14:40) 3.89 (14:50) 0.6 0.6 0 0 0
03-10-2019 18.9 (14:30) 11.3 (00:00) 15.1 5 (11:10) 3.33 (11:10) 8.8 0 0 0.8 8
02-10-2019 20.8 (18:10) 13.9 (00:00) 17.3 5.28 (15:10) 3.61 (16:50) 0 0 0 0 0
01-10-2019 21.1 (16:50) 16.6 (00:00) 18.9 8.61 (15:50) 4.72 (15:50) 0.2 0.2 0 0 0
30-09-2019 21 (16:10) 18.5 (00:00) 19.8 7.5 (12:50) 4.17 (12:30) 3.6 1.4 1.8 0.4 0
29-09-2019 18.6 (13:10) 13.9 (00:00) 16.3 12.78 (14:00) 5.83 (14:00) 8.4 0 1.4 3.6 3.4
28-09-2019 20.3 (15:40) 9.8 (00:00) 15 6.39 (15:50) 4.17 (15:20) 0 0 0 0 0
27-09-2019 20.8 (16:30) 13.9 (00:00) 17.3 7.78 (05:50) 4.17 (15:50) 10.4 0 10.4 0 0
26-09-2019 21.2 (15:40) 17.1 (00:00) 19.2 8.06 (14:50) 5 (13:50) 0 0 0 0 0
25-09-2019 20.1 (17:10) 15.7 (00:00) 17.9 7.78 (17:20) 4.44 (15:50) 0 0 0 0 0
24-09-2019 20.8 (17:10) 16.6 (00:00) 18.7 15.56 (04:50) 8.33 (04:50) 25.4 24.4 0.2 0.8 0
23-09-2019 19.5 (11:50) 16.4 (00:00) 17.9 14.72 (16:20) 7.5 (18:00) 6.4 0 0 1.4 5
22-09-2019 20.5 (16:00) 15.1 (00:00) 17.8 10.28 (00:10) 5.83 (14:50) 0.8 0.8 0 0 0

Gráficas

Temp. máximas Temp. mínimas Temp. medias Precipitaciones Rachas de viento máximas Velocidades máximas media en intervalos de 10 minutos

Datos horarios

Fecha y hora oficial Temperatura (ºC) Velocidad del viento (km/h) Dirección del viento Racha (km/h) Dirección de racha Precipitación (mm) Presión (hPa) Tendencia (hPa) Humedad (%)
2019-10-21 23:00:00 11.1 3 Oeste 6 Sur 0 -- -- 86
2019-10-21 22:00:00 11.6 5 Sur 10 Este 0 -- -- 82
2019-10-21 21:00:00 12.2 2 Sudeste 11 Noroeste 0 -- -- 81
2019-10-21 20:00:00 13.2 3 Norte 19 Nordeste 0 -- -- 76
2019-10-21 19:00:00 14.2 11 Nordeste 22 Este 0 -- -- 74
2019-10-21 18:00:00 15.6 11 Nordeste 22 Nordeste 0 -- -- 69
2019-10-21 17:00:00 15.9 10 Nordeste 20 Nordeste 0 -- -- 68
2019-10-21 16:00:00 16.2 11 Norte 22 Norte 0 -- -- 70
2019-10-21 15:00:00 15.7 9 Norte 18 Norte 0 -- -- 75
2019-10-21 14:00:00 15.1 12 Norte 19 Norte 0 -- -- 74
2019-10-21 13:00:00 13.8 3 Norte 13 Norte 0 -- -- 82
2019-10-21 12:00:00 11.7 4 Noroeste 6 Noroeste 0 -- -- 97
2019-10-21 11:00:00 10 2 Noroeste 4 Oeste 0 -- -- 100
2019-10-21 10:00:00 9.6 3 Este 14 Este 0.2 -- -- 100
2019-10-21 09:00:00 8.6 3 Sudeste 10 Nordeste 0 -- -- 100
2019-10-21 08:00:00 7.5 5 Sudeste 8 Sudeste 0 -- -- 100
2019-10-21 07:00:00 7.6 3 Este 6 Sudeste 0 -- -- 100
2019-10-21 06:00:00 7.5 0 Calma 5 Oeste 0 -- -- 100
2019-10-21 05:00:00 7.6 0 Calma 5 Sudeste 0 -- -- 100
2019-10-21 04:00:00 8 2 Sudeste 7 Este 0 -- -- 100
2019-10-21 03:00:00 8.4 2 Sudoeste 6 Sudeste 0 -- -- 100
2019-10-21 02:00:00 8.7 3 Este 9 Nordeste 0 -- -- 100
2019-10-21 01:00:00 9.3 0 Calma 5 Nordeste 0 -- -- 100
2019-10-21 00:00:00 10 3 Sur 6 Sudeste 0 -- -- 99
2019-10-20 23:00:00 10.4 4 Sudeste 6 Sudeste 0 -- -- 97
2019-10-20 22:00:00 11.1 3 Sudeste 7 Sur 0 -- -- 98
2019-10-20 21:00:00 12 4 Sudeste 6 Sur 0 -- -- 96
2019-10-20 20:00:00 13.1 6 Sur 9 Sur 0 -- -- 92
2019-10-20 19:00:00 15.2 4 Nordeste 13 Nordeste 0 -- -- 79
2019-10-20 18:00:00 15.4 6 Noroeste 11 Noroeste 0 -- -- 84
2019-10-20 17:00:00 15 5 Noroeste 9 Noroeste 0 -- -- 83
2019-10-20 16:00:00 14.1 0 Calma 7 Oeste 0.2 -- -- 94
2019-10-20 15:00:00 13.6 5 Oeste 15 Oeste 1.4 -- -- 90
2019-10-20 14:00:00 14.8 10 Sudoeste 17 Oeste 0 -- -- 83
2019-10-20 13:00:00 14.9 6 Noroeste 10 Oeste 0 -- -- 82
2019-10-20 12:00:00 13.6 3 Noroeste 6 Noroeste 0 -- -- 95
2019-10-20 11:00:00 11.4 0 Calma 6 Sudeste 0 -- -- 100
2019-10-20 10:00:00 8.6 4 Este 9 Sur 0 -- -- 100
2019-10-20 09:00:00 8.5 4 Sudeste 8 Sur 0 -- -- 100
2019-10-20 08:00:00 8.8 3 Sudeste 7 Sur 0.2 -- -- 100
2019-10-20 07:00:00 8.9 5 Sur 6 Sur 0 -- -- 100
2019-10-20 06:00:00 9.1 3 Sudeste 7 Sur 0 -- -- 100
2019-10-20 05:00:00 9.4 2 Sudeste 6 Sur 0 -- -- 100
2019-10-20 04:00:00 10.1 3 Oeste 7 Sur 0 -- -- 99
2019-10-20 03:00:00 10.7 2 Sur 6 Norte 0 -- -- 98
2019-10-20 02:00:00 11.5 4 Norte 9 Este 0 -- -- 96
2019-10-20 01:00:00 11.7 3 Noroeste 13 Este 0.2 -- -- 98
2019-10-20 00:00:00 11.6 4 Oeste 6 Oeste 0 -- -- 98
2019-10-19 23:00:00 12 0 Calma 13 Norte 0 -- -- 97
2019-10-19 22:00:00 12.1 6 Norte 12 Nordeste 0 -- -- 96
2019-10-19 21:00:00 12 6 Nordeste 16 Nordeste 0.8 -- -- 97
2019-10-19 20:00:00 12.3 9 Nordeste 21 Nordeste 0.6 -- -- 95
2019-10-19 19:00:00 13 5 Nordeste 12 Noroeste 0.6 -- -- 95
2019-10-19 18:00:00 13.4 9 Noroeste 22 Noroeste 0 -- -- 95
2019-10-19 17:00:00 13.2 6 Nordeste 23 Norte 0 -- -- 93
2019-10-19 16:00:00 14.1 10 Nordeste 24 Nordeste 0.2 -- -- 93
2019-10-19 15:00:00 12.9 6 Nordeste 17 Noroeste 0.6 -- -- 100
2019-10-19 14:00:00 12.3 6 Nordeste 19 Sudeste 1 -- -- 100
2019-10-19 13:00:00 12.3 13 Sudeste 22 Sudeste 1.4 -- -- 100
2019-10-19 12:00:00 12.8 8 Este 14 Este 2.6 -- -- 100
2019-10-19 11:00:00 12.8 4 Sudeste 6 Sudeste 2.8 -- -- 100
2019-10-19 10:00:00 12.9 5 Sudeste 11 Noroeste 9.2 -- -- 100
2019-10-19 09:00:00 12.9 0 Calma 6 Este 4.6 -- -- 100
2019-10-19 08:00:00 12.9 5 Este 10 Sudeste 2.4 -- -- 100
2019-10-19 07:00:00 12.9 6 Este 14 Este 0.8 -- -- 100
2019-10-19 06:00:00 13.1 6 Sudeste 10 Sudeste 0.4 -- -- 100
2019-10-19 05:00:00 13.1 5 Este 8 Sudeste 0.8 -- -- 100
2019-10-19 04:00:00 13.4 3 Este 6 Este 0.4 -- -- 100
2019-10-19 03:00:00 13.6 4 Sudeste 5 Este 1.6 -- -- 100
2019-10-19 02:00:00 14 4 Noroeste 17 Oeste 1.6 -- -- 100
2019-10-19 01:00:00 14.6 6 Oeste 20 Sudoeste 2 -- -- 100
2019-10-19 00:00:00 14.6 5 Sudoeste 18 Oeste 2 -- -- 100
2019-10-18 23:00:00 14.9 11 Oeste 37 Oeste 9.6 -- -- 100
2019-10-18 22:00:00 15 10 Sudoeste 25 Sur 7.8 -- -- 99
2019-10-18 21:00:00 15 14 Sudoeste 37 Sudoeste 3.2 -- -- 99
2019-10-18 20:00:00 15.5 15 Sur 37 Sudoeste 2.2 -- -- 94
2019-10-18 19:00:00 16.3 13 Sudoeste 36 Sudoeste 0 -- -- 91
2019-10-18 18:00:00 16.3 14 Sur 39 Sur 0 -- -- 90
2019-10-18 17:00:00 16.5 21 Sudoeste 36 Sudoeste 0 -- -- 88
2019-10-18 16:00:00 17.1 18 Sudoeste 33 Sur 0 -- -- 85
2019-10-18 15:00:00 16.9 15 Sudoeste 32 Sudoeste 0 -- -- 86
2019-10-18 14:00:00 16.3 14 Sudoeste 28 Sudoeste 0.6 -- -- 90
2019-10-18 13:00:00 15.8 14 Sur 27 Sur 0.2 -- -- 91
2019-10-18 12:00:00 15.7 13 Sur 30 Sudoeste 0 -- -- 94
2019-10-18 11:00:00 15.1 9 Sur 22 Sur 0.8 -- -- 95
2019-10-18 10:00:00 14.8 12 Sur 26 Sur 0 -- -- 94
2019-10-18 09:00:00 13.9 10 Sur 18 Sur 0 -- -- 96
2019-10-18 08:00:00 13.9 8 Sur 17 Sudoeste 0 -- -- 97
2019-10-18 07:00:00 13.8 5 Sur 12 Sur 0 -- -- 97
2019-10-18 06:00:00 14.3 7 Sudoeste 17 Sudoeste 0.4 -- -- 95
2019-10-18 05:00:00 13.9 4 Sur 10 Sur 0 -- -- 97
2019-10-18 04:00:00 13.7 3 Sudeste 13 Sur 0 -- -- 96
2019-10-18 03:00:00 14 6 Sur 12 Sudoeste 0 -- -- 95
2019-10-18 02:00:00 14.2 5 Sudoeste 19 Oeste 0.2 -- -- 95
2019-10-18 01:00:00 14.6 7 Sur 14 Sudoeste 0 -- -- 90
2019-10-18 00:00:00 14 6 Sur 12 Sudoeste 0 -- -- 92
2019-10-17 23:00:00 14 6 Sur 11 Sur 0 -- -- 92
2019-10-17 22:00:00 14.3 5 Sur 11 Sudoeste 0 -- -- 90
2019-10-17 21:00:00 14.4 0 Calma 11 Sudeste 0 -- -- 89
2019-10-17 20:00:00 15.3 6 Sur 12 Sur 0 -- -- 88
2019-10-17 19:00:00 16 7 Sur 17 Sur 0 -- -- 85
2019-10-17 18:00:00 16.4 7 Sudoeste 16 Sur 0 -- -- 79
2019-10-17 17:00:00 16.5 10 Sur 23 Sur 0 -- -- 83
2019-10-17 16:00:00 17 9 Sudoeste 23 Sudoeste 0 -- -- 81
2019-10-17 15:00:00 16.8 12 Sudoeste 25 Oeste 0 -- -- 76
2019-10-17 14:00:00 16.8 11 Oeste 27 Oeste 0 -- -- 77
2019-10-17 13:00:00 16.4 9 Sudoeste 21 Sudoeste 0 -- -- 87
2019-10-17 12:00:00 17 10 Sudoeste 20 Sur 0 -- -- 88
2019-10-17 11:00:00 15.5 7 Sudoeste 16 Oeste 0 -- -- 95
2019-10-17 10:00:00 15.1 10 Oeste 20 Sudoeste 0.2 -- -- 99
2019-10-17 09:00:00 14.6 5 Sudoeste 14 Sudoeste 0 -- -- 100
2019-10-17 08:00:00 14.5 6 Sudoeste 15 Sudoeste 0 -- -- 99
2019-10-17 07:00:00 15 10 Sudoeste 17 Sudoeste 0 -- -- 100
2019-10-17 06:00:00 15.8 10 Oeste 24 Sudoeste 1.4 -- -- 100
2019-10-17 05:00:00 16.6 6 Sudoeste 15 Sudoeste 0 -- -- 100
2019-10-17 04:00:00 16.8 7 Sudoeste 16 Sudoeste 0 -- -- 100
2019-10-17 03:00:00 16.9 9 Sudoeste 17 Sudoeste 0 -- -- 100
2019-10-17 02:00:00 17.1 12 Sudoeste 23 Sudoeste 0.2 -- -- 100
2019-10-17 01:00:00 16.8 15 Sudoeste 32 Sudoeste 0.4 -- -- 100
2019-10-17 00:00:00 16.9 16 Sudoeste 28 Sudoeste 0.4 -- -- 100
2019-10-16 23:00:00 16.9 14 Sudoeste 29 Sur 1 -- -- 100
2019-10-16 22:00:00 16.9 15 Sur 42 Sudoeste 0.4 -- -- 99
2019-10-16 21:00:00 17.1 23 Sudoeste 48 Sudoeste 1.8 -- -- 98
2019-10-16 20:00:00 17 22 Sur 55 Sudoeste 15 -- -- 99
2019-10-16 19:00:00 17.4 31 Sur 64 Sur 0.6 -- -- 97
2019-10-16 18:00:00 17 28 Sur 61 Sur 1 -- -- 98
2019-10-16 17:00:00 16.7 20 Sur 57 Sudoeste 2 -- -- 98
2019-10-16 16:00:00 17 30 Sur 63 Sudoeste 0.6 -- -- 97
2019-10-16 15:00:00 16.6 24 Sur 53 Sudoeste 0.8 -- -- 98
2019-10-16 14:00:00 16.4 23 Sur 59 Sudoeste 9.2 -- -- 99
2019-10-16 13:00:00 16.5 29 Sur 63 Sur 0.6 -- -- 97
2019-10-16 12:00:00 16.4 27 Sur 54 Sudoeste 0.6 -- -- 96
2019-10-16 11:00:00 15.9 24 Sur 54 Sur 0.8 -- -- 97
2019-10-16 10:00:00 16.2 22 Sur 60 Sudoeste 1.2 -- -- 94
2019-10-16 09:00:00 16.4 21 Sur 53 Sudoeste 0 -- -- 90
2019-10-16 08:00:00 16.6 24 Sur 56 Sur 2.2 -- -- 94
2019-10-16 07:00:00 16.2 21 Sur 51 Sur 1.4 -- -- 94
2019-10-16 06:00:00 16 24 Sudoeste 50 Sur 3.8 -- -- 96
2019-10-16 05:00:00 16.2 23 Sur 50 Sur 3 -- -- 93
2019-10-16 04:00:00 15.9 19 Sur 46 Sudoeste 1.4 -- -- 95
2019-10-16 03:00:00 16 21 Sur 56 Sur 0.8 -- -- 93
2019-10-16 02:00:00 16.4 20 Sur 46 Sudoeste 0 -- -- 87
2019-10-16 01:00:00 15.8 19 Sur 43 Sudoeste 0.4 -- -- 92
2019-10-16 00:00:00 16 22 Sur 46 Sudoeste 0.6 -- -- 89
2019-10-15 23:00:00 15.7 13 Sudoeste 39 Sudoeste 1.4 -- -- 91
2019-10-15 22:00:00 16.2 16 Sur 38 Sudoeste 0.2 -- -- 86
2019-10-15 21:00:00 16 18 Sur 42 Sur 0.2 -- -- 87
2019-10-15 20:00:00 15.8 19 Sur 38 Sudoeste 0 -- -- 88
2019-10-15 19:00:00 15.4 15 Sur 54 Sudoeste 2.2 -- -- 94
2019-10-15 18:00:00 15.8 16 Sur 43 Sudoeste 1.4 -- -- 91
2019-10-15 17:00:00 16.9 19 Sur 43 Sudoeste 0 -- -- 77
2019-10-15 16:00:00 17.4 19 Sudoeste 44 Sudoeste 0 -- -- 76
2019-10-15 15:00:00 17.3 16 Sudoeste 36 Sudoeste 0 -- -- 74
2019-10-15 14:00:00 17.5 17 Sur 39 Sudoeste 0 -- -- 73
2019-10-15 13:00:00 16.9 21 Sur 37 Sudoeste 0 -- -- 75
2019-10-15 12:00:00 16.1 12 Sur 36 Sudoeste 0 -- -- 82
2019-10-15 11:00:00 14.9 15 Sur 30 Sur 0 -- -- 87
2019-10-15 10:00:00 13.8 13 Sur 27 Sur 0 -- -- 92
2019-10-15 09:00:00 13.3 12 Sur 25 Sudeste 0.4 -- -- 93
2019-10-15 08:00:00 13 12 Sur 23 Sur 0 -- -- 92
2019-10-15 07:00:00 11.7 10 Sur 17 Sur 0 -- -- 100
2019-10-15 06:00:00 10.9 5 Este 9 Este 0 -- -- 99
2019-10-15 05:00:00 11 6 Este 10 Este 0 -- -- 98
2019-10-15 04:00:00 11.8 4 Sudeste 27 Oeste 0 -- -- 96
2019-10-15 03:00:00 10.2 5 Este 8 Este 0 -- -- 99
2019-10-15 02:00:00 10.2 5 Este 7 Este 0 -- -- 98
2019-10-15 01:00:00 10.9 5 Sudeste 12 Sudoeste 0 -- -- 94
2019-10-15 00:00:00 12.5 7 Sudoeste 14 Sudoeste 0 -- -- 90
2019-10-14 23:00:00 12.2 5 Este 10 Sur 0 -- -- 92
2019-10-14 22:00:00 12.9 7 Sur 14 Sudoeste 0.6 -- -- 89
2019-10-14 21:00:00 12.7 5 Sudoeste 17 Noroeste 0 -- -- 87
2019-10-14 20:00:00 14.2 10 Oeste 24 Oeste 0 -- -- 79
2019-10-14 19:00:00 14.9 13 Oeste 31 Oeste 0 -- -- 75
2019-10-14 18:00:00 15.8 18 Oeste 32 Noroeste 0 -- -- 71
2019-10-14 17:00:00 15.6 16 Oeste 36 Oeste 0 -- -- 73
2019-10-14 16:00:00 16 26 Oeste 44 Noroeste 0 -- -- 64
2019-10-14 15:00:00 14.6 19 Oeste 32 Oeste 0.6 -- -- 82
2019-10-14 14:00:00 15.7 18 Oeste 31 Oeste 0 -- -- 71
2019-10-14 13:00:00 15.2 22 Noroeste 36 Oeste 0 -- -- 75
2019-10-14 12:00:00 14.8 23 Oeste 36 Oeste 0 -- -- 84
2019-10-14 11:00:00 13.7 12 Sudoeste 30 Sudoeste 1 -- -- 98
2019-10-14 10:00:00 13.3 10 Sur 18 Sur 0.6 -- -- 99
2019-10-14 09:00:00 13.3 8 Sudoeste 28 Sudoeste 4 -- -- 99
2019-10-14 08:00:00 13.4 12 Sudoeste 28 Sur 7.8 -- -- 97
2019-10-14 07:00:00 13.3 7 Sudeste 21 Sudeste 2 -- -- 98
2019-10-14 06:00:00 13.6 16 Sur 31 Sur 0.6 -- -- 95
2019-10-14 05:00:00 13.5 6 Sudeste 17 Sur 0 -- -- 96
2019-10-14 04:00:00 13.2 10 Sur 22 Sur 0.2 -- -- 98
2019-10-14 03:00:00 13.1 5 Sudoeste 12 Sudoeste 1 -- -- 100
2019-10-14 02:00:00 13.1 5 Sudeste 10 Sudeste 1.6 -- -- 100
2019-10-14 01:00:00 13.2 4 Sudeste 10 Este 0.6 -- -- 100
2019-10-14 00:00:00 13.5 2 Sur 13 Sudeste 0.8 -- -- 100
2019-10-13 23:00:00 13.7 4 Sudeste 17 Sudeste 2.8 -- -- 100
2019-10-13 22:00:00 13.7 9 Sudeste 14 Sudeste 3.4 -- -- 100
2019-10-13 21:00:00 13.8 3 Sudeste 7 Sudeste 2.6 -- -- 100
2019-10-13 20:00:00 14 4 Sudeste 5 Este 1.4 -- -- 99
2019-10-13 19:00:00 14.1 3 Sudoeste 8 Sur 1.6 -- -- 98
2019-10-13 18:00:00 14.3 3 Oeste 17 Oeste 1 -- -- 98
2019-10-13 17:00:00 14.7 7 Oeste 17 Oeste 0.8 -- -- 95
2019-10-13 16:00:00 15.6 4 Oeste 12 Oeste 0.6 -- -- 96
2019-10-13 15:00:00 15.9 4 Oeste 10 Noroeste 0.8 -- -- 95
2019-10-13 14:00:00 16.4 4 Noroeste 9 Noroeste 0.4 -- -- 93
2019-10-13 13:00:00 16.9 3 Sur 8 Oeste 0 -- -- 89
2019-10-13 12:00:00 16 5 Oeste 9 Oeste 0.4 -- -- 95
2019-10-13 11:00:00 15.9 3 Sur 9 Sudoeste 0 -- -- 95
2019-10-13 10:00:00 15.3 5 Sudoeste 13 Sudoeste 0 -- -- 97
2019-10-13 09:00:00 15 8 Sudoeste 18 Sudoeste 0 -- -- 98
2019-10-13 08:00:00 15.1 10 Oeste 25 Sudoeste 0 -- -- 99
2019-10-13 07:00:00 17 23 Sudoeste 63 Sudoeste 2 -- -- 95
2019-10-13 06:00:00 17.3 21 Sur 55 Sudeste 9.8 -- -- 97
2019-10-13 05:00:00 17 24 Sur 49 Sur 3.6 -- -- 95
2019-10-13 04:00:00 17.8 19 Sur 42 Sur 0.2 -- -- 87
2019-10-13 03:00:00 17.6 18 Sur 45 Sur 0.2 -- -- 88
2019-10-13 02:00:00 18.6 19 Sur 40 Sudeste 0 -- -- 77
2019-10-13 01:00:00 18.2 17 Sur 37 Sur 0 -- -- 78
2019-10-13 00:00:00 17.8 14 Sur 40 Sur 0 -- -- 78
2019-10-12 23:00:00 18 15 Sur 27 Sudoeste 0 -- -- 78
2019-10-12 22:00:00 17.9 13 Sur 24 Sur 0 -- -- 78
2019-10-12 21:00:00 17.7 8 Sur 25 Sur 0 -- -- 85
2019-10-12 20:00:00 18 8 Sur 27 Sur 0 -- -- 85
2019-10-12 19:00:00 19 8 Sudoeste 24 Sudoeste 0 -- -- 76
2019-10-12 18:00:00 19.3 18 Sudoeste 33 Sudoeste 0 -- -- 72
2019-10-12 17:00:00 19.8 13 Sudoeste 26 Sudoeste 0 -- -- 70
2019-10-12 16:00:00 19.8 12 Sudoeste 27 Sur 0 -- -- 69
2019-10-12 15:00:00 19.6 13 Sudoeste 27 Sudoeste 0 -- -- 71
2019-10-12 14:00:00 19.9 10 Sudoeste 21 Sudoeste 0 -- -- 71
2019-10-12 13:00:00 19.6 9 Sur 22 Sur 0 -- -- 70
2019-10-12 12:00:00 18 7 Sudeste 12 Sudeste 0 -- -- 82
2019-10-12 11:00:00 17.6 8 Sudeste 18 Sur 0 -- -- 82
2019-10-12 10:00:00 16.8 5 Sur 14 Sur 0 -- -- 85
2019-10-12 09:00:00 16.5 6 Sur 17 Sur 0 -- -- 85
2019-10-12 08:00:00 16.3 8 Sur 20 Sur 0 -- -- 86
2019-10-12 07:00:00 16 12 Sur 21 Sur 0 -- -- 88
2019-10-12 06:00:00 15 0 Calma 6 Este 0 -- -- 93
2019-10-12 05:00:00 15.1 0 Calma 15 Sudeste 0 -- -- 93
2019-10-12 04:00:00 15.2 10 Sudeste 18 Sudeste 0 -- -- 92
2019-10-12 03:00:00 14.8 7 Sur 14 Sur 0 -- -- 96
2019-10-12 02:00:00 12.9 3 Sur 8 Sudeste 0 -- -- 98
2019-10-12 01:00:00 13.4 3 Sudeste 10 Noroeste 0 -- -- 97
2019-10-12 00:00:00 13.4 4 Sudeste 6 Sudeste 0 -- -- 97
2019-10-11 23:00:00 13.7 4 Este 5 Este 0 -- -- 96
2019-10-11 22:00:00 14.5 3 Sudeste 8 Sudoeste 0 -- -- 94
2019-10-11 21:00:00 16 5 Sur 15 Sudoeste 0 -- -- 88
2019-10-11 20:00:00 16.9 7 Sudoeste 17 Sudoeste 0 -- -- 86
2019-10-11 19:00:00 18.2 12 Oeste 21 Oeste 0 -- -- 80
2019-10-11 18:00:00 19.3 10 Oeste 19 Sudoeste 0 -- -- 76
2019-10-11 17:00:00 19.7 9 Oeste 17 Oeste 0 -- -- 75
2019-10-11 16:00:00 18.8 8 Noroeste 12 Noroeste 0 -- -- 83
2019-10-11 15:00:00 16.9 7 Noroeste 12 Oeste 0 -- -- 90
2019-10-11 14:00:00 15.6 7 Noroeste 13 Oeste 0 -- -- 93
2019-10-11 13:00:00 14.3 6 Noroeste 10 Sudoeste 0 -- -- 97
2019-10-11 12:00:00 13.7 2 Nordeste 6 Sudeste 0 -- -- 100
2019-10-11 11:00:00 12.7 2 Sudoeste 5 Sudoeste 0 -- -- 100
2019-10-11 10:00:00 12.1 0 Calma 6 Sur 0 -- -- 100
2019-10-11 09:00:00 12.1 3 Sudeste 6 Este 0 -- -- 100
2019-10-11 08:00:00 12.2 0 Calma 6 Sudeste 0 -- -- 100
2019-10-11 07:00:00 12.5 4 Sudeste 12 Sudeste 0 -- -- 100
2019-10-11 06:00:00 12.4 8 Sudeste 12 Sudeste 0 -- -- 100
2019-10-11 05:00:00 12.3 4 Sur 6 Sudeste 0 -- -- 98
2019-10-11 04:00:00 13 2 Sudeste 10 Este 0 -- -- 98
2019-10-11 03:00:00 12.9 5 Este 9 Este 0 -- -- 96
2019-10-11 02:00:00 13.9 5 Sudeste 11 Sudeste 0 -- -- 96
2019-10-11 01:00:00 14.3 4 Este 8 Sudeste 0 -- -- 95
2019-10-11 00:00:00 15.3 2 Este 5 Noroeste 0 -- -- 90
2019-10-10 23:00:00 16.4 0 Calma 10 Norte 0 -- -- 88
2019-10-10 22:00:00 18 4 Noroeste 8 Norte 0 -- -- 83
2019-10-10 21:00:00 19.5 2 Este 20 Nordeste 0 -- -- 76
2019-10-10 20:00:00 21.2 4 Nordeste 17 Nordeste 0 -- -- 69
2019-10-10 19:00:00 22.7 8 Norte 18 Nordeste 0 -- -- 62
2019-10-10 18:00:00 23.7 7 Norte 21 Nordeste 0 -- -- 57
2019-10-10 17:00:00 23.3 12 Norte 24 Nordeste 0 -- -- 56
2019-10-10 16:00:00 22.8 10 Nordeste 26 Norte 0 -- -- 56
2019-10-10 15:00:00 21.6 14 Nordeste 33 Nordeste 0 -- -- 57
2019-10-10 14:00:00 19.7 16 Nordeste 31 Norte 0 -- -- 65
2019-10-10 13:00:00 18.2 14 Norte 26 Norte 0 -- -- 67
2019-10-10 12:00:00 16 13 Norte 23 Norte 0 -- -- 76
2019-10-10 11:00:00 14 14 Norte 21 Nordeste 0 -- -- 83
2019-10-10 10:00:00 13.4 5 Nordeste 11 Norte 0 -- -- 87
2019-10-10 09:00:00 11.7 3 Sudeste 19 Nordeste 0 -- -- 91
2019-10-10 08:00:00 12.6 14 Nordeste 31 Nordeste 0 -- -- 88
2019-10-10 07:00:00 12 9 Este 23 Nordeste 0 -- -- 92
2019-10-10 06:00:00 12.5 16 Nordeste 24 Nordeste 0 -- -- 90
2019-10-10 05:00:00 12.6 4 Nordeste 12 Nordeste 0 -- -- 92
2019-10-10 04:00:00 12.3 0 Calma 8 Norte 0 -- -- 94
2019-10-10 03:00:00 12.8 5 Noroeste 10 Norte 0 -- -- 94
2019-10-10 02:00:00 13.1 2 Norte 9 Noroeste 0 -- -- 92
2019-10-10 01:00:00 13.7 0 Calma 7 Sudeste 0 -- -- 89
2019-10-10 00:00:00 14.4 0 Calma 11 Nordeste 0 -- -- 86
2019-10-09 23:00:00 15.1 8 Nordeste 21 Nordeste 0 -- -- 82
2019-10-09 22:00:00 15.6 8 Nordeste 18 Nordeste 0 -- -- 77
2019-10-09 21:00:00 16.7 5 Norte 17 Norte 0 -- -- 74
2019-10-09 20:00:00 17.8 10 Noroeste 21 Noroeste 0 -- -- 72
2019-10-09 19:00:00 20.4 7 Noroeste 13 Noroeste 0 -- -- 60
2019-10-09 18:00:00 20.4 5 Oeste 12 Oeste 0 -- -- 61
2019-10-09 17:00:00 19.5 7 Noroeste 23 Oeste 0 -- -- 69
2019-10-09 16:00:00 20.2 12 Noroeste 24 Oeste 0 -- -- 65
2019-10-09 15:00:00 19.8 10 Nordeste 23 Nordeste 0 -- -- 58
2019-10-09 14:00:00 18.8 7 Norte 17 Norte 0 -- -- 69
2019-10-09 13:00:00 17.7 8 Nordeste 14 Nordeste 0 -- -- 76
2019-10-09 12:00:00 15.9 5 Noroeste 8 Noroeste 0 -- -- 87
2019-10-09 11:00:00 14.6 0 Calma 6 Noroeste 0 -- -- 90
2019-10-09 10:00:00 12.1 0 Calma 4 Sur 0 -- -- 99
2019-10-09 09:00:00 10.6 4 Nordeste 7 Nordeste 0 -- -- 100
2019-10-09 08:00:00 10.6 0 Calma 4 Sudeste 0 -- -- 100
2019-10-09 07:00:00 10.8 3 Nordeste 6 Norte 0 -- -- 100
2019-10-09 06:00:00 10.8 4 Sur 6 Sudeste 0 -- -- 100
2019-10-09 05:00:00 11.2 5 Sur 7 Sudeste 0 -- -- 99
2019-10-09 04:00:00 11.6 3 Sudeste 6 Sudeste 0 -- -- 98
2019-10-09 03:00:00 11.6 0 Calma 6 Sur 0 -- -- 98
2019-10-09 02:00:00 12.5 2 Sur 6 Sur 0 -- -- 96
2019-10-09 01:00:00 12.9 5 Sur 9 Norte 0 -- -- 94
2019-10-09 00:00:00 13.6 3 Sudeste 6 Sudeste 0 -- -- 90
2019-10-08 23:00:00 15.1 0 Calma 11 Nordeste 0 -- -- 83
2019-10-08 22:00:00 15.9 2 Norte 12 Nordeste 0 -- -- 80
2019-10-08 21:00:00 17.1 8 Norte 18 Norte 0 -- -- 76
2019-10-08 20:00:00 18.4 8 Noroeste 18 Nordeste 0 -- -- 80
2019-10-08 19:00:00 18.4 8 Este 15 Este 0 -- -- 76
2019-10-08 18:00:00 18 7 Este 24 Nordeste 0 -- -- 87
2019-10-08 17:00:00 18.7 6 Norte 19 Norte 0 -- -- 86
2019-10-08 16:00:00 19.8 5 Norte 17 Nordeste 0 -- -- 83
2019-10-08 15:00:00 19.2 11 Nordeste 24 Nordeste 0 -- -- 85
2019-10-08 14:00:00 18.7 13 Nordeste 27 Nordeste 0 -- -- 92
2019-10-08 13:00:00 18.7 8 Noroeste 17 Noroeste 0.4 -- -- 100
2019-10-08 12:00:00 19.2 8 Sudoeste 18 Sudoeste 1.2 -- -- 100
2019-10-08 11:00:00 19.1 10 Sudoeste 20 Sudoeste 0.6 -- -- 100
2019-10-08 10:00:00 18.9 7 Sudoeste 15 Sudoeste 0.6 -- -- 100
2019-10-08 09:00:00 18.4 5 Sur 10 Sudoeste 0 -- -- 100
2019-10-08 08:00:00 18.1 5 Sur 13 Sudoeste 0.2 -- -- 100
2019-10-08 07:00:00 18.2 6 Oeste 11 Oeste 0 -- -- 100
2019-10-08 06:00:00 18.2 2 Sur 6 Noroeste 0 -- -- 100
2019-10-08 05:00:00 18.2 3 Noroeste 11 Este 0 -- -- 100
2019-10-08 04:00:00 17.9 6 Este 13 Este 0 -- -- 100
2019-10-08 03:00:00 18.3 4 Este 16 Sudeste 0 -- -- 99
2019-10-08 02:00:00 18.6 7 Este 10 Este 0 -- -- 98
2019-10-08 01:00:00 18.8 5 Sudoeste 10 Sudoeste 0 -- -- 97
2019-10-08 00:00:00 19.4 2 Sur 10 Noroeste 0 -- -- 94
2019-10-07 23:00:00 19.9 0 Calma 5 Sur 0 -- -- 91
2019-10-07 22:00:00 20.2 3 Sur 11 Sur 0 -- -- 88
2019-10-07 21:00:00 20.6 3 Sur 8 Sudoeste 0 -- -- 85
2019-10-07 20:00:00 21.2 3 Sudoeste 6 Sudoeste 0 -- -- 83
2019-10-07 19:00:00 21.2 6 Sudoeste 18 Sudoeste 0 -- -- 81
2019-10-07 18:00:00 22.4 12 Sudoeste 18 Sudoeste 0 -- -- 76
2019-10-07 17:00:00 23.2 9 Oeste 15 Sudoeste 0 -- -- 66
2019-10-07 16:00:00 23.2 8 Oeste 15 Oeste 0 -- -- 60
2019-10-07 15:00:00 22.3 9 Noroeste 16 Noroeste 0 -- -- 66
2019-10-07 14:00:00 21.2 10 Noroeste 14 Oeste 0 -- -- 66
2019-10-07 13:00:00 19.5 8 Noroeste 11 Oeste 0 -- -- 73
2019-10-07 12:00:00 17.1 5 Oeste 8 Noroeste 0 -- -- 86
2019-10-07 11:00:00 15.6 2 Norte 12 Este 0 -- -- 92
2019-10-07 10:00:00 13.7 4 Este 5 Este 0 -- -- 100
2019-10-07 09:00:00 11.9 0 Calma 7 Sudeste 0 -- -- 100
2019-10-07 08:00:00 11.8 4 Sudeste 6 Sudeste 0 -- -- 100
2019-10-07 07:00:00 12 0 Calma 4 Este 0 -- -- 100
2019-10-07 06:00:00 12.3 3 Este 5 Este 0 -- -- 99
2019-10-07 05:00:00 12.7 0 Calma 5 Sur 0 -- -- 99
2019-10-07 04:00:00 13.1 0 Calma 8 Sur 0 -- -- 98
2019-10-07 03:00:00 13.7 4 Sur 7 Sudeste 0 -- -- 98
2019-10-07 02:00:00 13.9 4 Sudeste 5 Sudeste 0 -- -- 97
2019-10-07 01:00:00 14.9 0 Calma 5 Sudeste 0 -- -- 95
2019-10-07 00:00:00 15.8 2 Sudeste 6 Este 0 -- -- 94
2019-10-06 23:00:00 15.9 0 Calma 8 Este 0 -- -- 93
2019-10-06 22:00:00 16.3 5 Este 8 Sur 0 -- -- 91
2019-10-06 21:00:00 17.6 2 Sudeste 6 Sur 0 -- -- 86
2019-10-06 20:00:00 19.5 5 Sudoeste 13 Oeste 0 -- -- 79
2019-10-06 19:00:00 21.1 7 Oeste 14 Oeste 0 -- -- 73
2019-10-06 18:00:00 22.5 10 Noroeste 14 Noroeste 0 -- -- 68
2019-10-06 17:00:00 22.4 9 Oeste 12 Noroeste 0 -- -- 66
2019-10-06 16:00:00 21.7 8 Oeste 14 Noroeste 0 -- -- 68
2019-10-06 15:00:00 21.5 12 Noroeste 16 Noroeste 0 -- -- 72
2019-10-06 14:00:00 20.3 6 Norte 12 Norte 0 -- -- 76
2019-10-06 13:00:00 18.8 3 Sudoeste 9 Noroeste 0 -- -- 85
2019-10-06 12:00:00 18 0 Calma 5 Oeste 0 -- -- 91
2019-10-06 11:00:00 16.5 0 Calma 6 Este 0 -- -- 97
2019-10-06 10:00:00 15.6 2 Este 4 Este 0 -- -- 99
2019-10-06 09:00:00 15.2 2 Sudeste 4 Este 0 -- -- 99
2019-10-06 08:00:00 15.1 0 Calma 5 Sudeste 0 -- -- 98
2019-10-06 07:00:00 14.8 3 Este 15 Sudeste 0 -- -- 98
2019-10-06 06:00:00 15.3 2 Sudeste 5 Sur 0.6 -- -- 98
2019-10-06 05:00:00 15.7 3 Norte 6 Noroeste 0.2 -- -- 94
2019-10-06 04:00:00 15.6 3 Norte 9 Sudeste 0 -- -- 91
2019-10-06 03:00:00 15.1 3 Este 8 Sudeste 0 -- -- 91
2019-10-06 02:00:00 15.3 4 Sudeste 8 Sudeste 0 -- -- 91
2019-10-06 01:00:00 15.1 4 Este 8 Sudeste 0 -- -- 92
2019-10-06 00:00:00 14.9 3 Sudeste 5 Sur 0 -- -- 93
2019-10-05 23:00:00 14.9 0 Calma 7 Sudeste 0 -- -- 93
2019-10-05 22:00:00 15.2 3 Sur 7 Sudeste 0 -- -- 90
2019-10-05 21:00:00 16.4 4 Sudeste 9 Sudoeste 0 -- -- 86
2019-10-05 20:00:00 18.2 5 Oeste 15 Sudoeste 0 -- -- 77
2019-10-05 19:00:00 18.9 6 Oeste 13 Oeste 0 -- -- 75
2019-10-05 18:00:00 19 7 Oeste 21 Oeste 0 -- -- 73
2019-10-05 17:00:00 20.4 12 Oeste 20 Noroeste 0 -- -- 67
2019-10-05 16:00:00 19.9 9 Oeste 16 Oeste 0 -- -- 66
2019-10-05 15:00:00 19.9 8 Oeste 14 Oeste 0 -- -- 64
2019-10-05 14:00:00 20 5 Noroeste 10 Norte 0 -- -- 64
2019-10-05 13:00:00 18.6 4 Oeste 13 Noroeste 0 -- -- 65
2019-10-05 12:00:00 17.6 7 Noroeste 14 Noroeste 0 -- -- 78
2019-10-05 11:00:00 16.9 3 Noroeste 6 Sudeste 0 -- -- 84
2019-10-05 10:00:00 13.9 4 Este 6 Sudeste 0 -- -- 97
2019-10-05 09:00:00 13.8 3 Este 5 Sudeste 0 -- -- 96
2019-10-05 08:00:00 14.1 0 Calma 4 Oeste 0 -- -- 96
2019-10-05 07:00:00 13.8 3 Este 6 Sudeste 0 -- -- 96
2019-10-05 06:00:00 14.1 0 Calma 8 Este 0 -- -- 96
2019-10-05 05:00:00 13.9 4 Sudeste 7 Sudeste 0 -- -- 96
2019-10-05 04:00:00 13.7 4 Sudeste 9 Sudeste 0 -- -- 97
2019-10-05 03:00:00 13.3 5 Sudeste 9 Sudeste 0 -- -- 98
2019-10-05 02:00:00 13.1 0 Calma 4 Este 0 -- -- 97
2019-10-05 01:00:00 13.3 3 Sudeste 6 Sudeste 0 -- -- 96
2019-10-05 00:00:00 13.7 2 Sudeste 7 Sur 0 -- -- 93
2019-10-04 23:00:00 14.4 3 Sudeste 5 Este 0 -- -- 91
2019-10-04 22:00:00 15.1 2 Sur 5 Sur 0 -- -- 87
2019-10-04 21:00:00 16.3 3 Sur 6 Sur 0 -- -- 83
2019-10-04 20:00:00 18.8 4 Sudoeste 15 Oeste 0 -- -- 72
2019-10-04 19:00:00 20.4 9 Oeste 19 Oeste 0 -- -- 66
2019-10-04 18:00:00 21.3 12 Noroeste 17 Oeste 0 -- -- 62
2019-10-04 17:00:00 21.5 10 Oeste 14 Oeste 0 -- -- 60
2019-10-04 16:00:00 20.5 6 Noroeste 18 Oeste 0 -- -- 70
2019-10-04 15:00:00 20 12 Oeste 22 Oeste 0 -- -- 74
2019-10-04 14:00:00 20.2 9 Noroeste 13 Oeste 0 -- -- 81
2019-10-04 13:00:00 19.6 0 Calma 14 Sudeste 0 -- -- 78
2019-10-04 12:00:00 18.8 6 Este 9 Este 0 -- -- 88
2019-10-04 11:00:00 17.7 4 Norte 7 Noroeste 0 -- -- 97
2019-10-04 10:00:00 16.9 0 Calma 4 Norte 0 -- -- 100
2019-10-04 09:00:00 16.3 0 Calma 5 Sudoeste 0 -- -- 100
2019-10-04 08:00:00 16.4 2 Noroeste 14 Sudeste 0 -- -- 100
2019-10-04 07:00:00 16.3 8 Sudeste 13 Sudeste 0 -- -- 100
2019-10-04 06:00:00 16.9 4 Sudeste 10 Sudeste 0 -- -- 100
2019-10-04 05:00:00 17 2 Noroeste 4 Noroeste 0 -- -- 100
2019-10-04 04:00:00 16.8 0 Calma 4 Sur 0.2 -- -- 100
2019-10-04 03:00:00 16.8 0 Calma 6 Noroeste 0.4 -- -- 100
2019-10-04 02:00:00 16.8 3 Noroeste 5 Sudeste 0 -- -- 100
2019-10-04 01:00:00 16.6 0 Calma 5 Sudeste 0 -- -- 100
2019-10-04 00:00:00 16.5 0 Calma 3 Este 0.4 -- -- 100
2019-10-03 23:00:00 16.5 2 Este 4 Norte 0.2 -- -- 100
2019-10-03 22:00:00 16.4 0 Calma 6 Norte 1 -- -- 100
2019-10-03 21:00:00 16.4 3 Norte 5 Norte 2 -- -- 100
2019-10-03 20:00:00 16.4 2 Norte 6 Noroeste 2.8 -- -- 100
2019-10-03 19:00:00 16.4 7 Noroeste 10 Noroeste 1.6 -- -- 99
2019-10-03 18:00:00 16.8 6 Noroeste 11 Oeste 0.8 -- -- 97
2019-10-03 17:00:00 17.9 5 Oeste 10 Sudoeste 0 -- -- 89
2019-10-03 16:00:00 18.9 5 Oeste 13 Sudoeste 0 -- -- 78
2019-10-03 15:00:00 18.7 7 Oeste 16 Sudoeste 0 -- -- 76
2019-10-03 14:00:00 18.7 9 Sudoeste 18 Sudoeste 0 -- -- 74
2019-10-03 13:00:00 18.1 7 Sudoeste 15 Oeste 0 -- -- 77
2019-10-03 12:00:00 15.9 2 Noroeste 18 Sudeste 0 -- -- 90
2019-10-03 11:00:00 15.4 7 Sudeste 13 Sudeste 0 -- -- 92
2019-10-03 10:00:00 13.8 5 Este 9 Este 0 -- -- 100
2019-10-03 09:00:00 11.7 2 Este 4 Sudeste 0 -- -- 100
2019-10-03 08:00:00 11.3 2 Sudeste 5 Este 0 -- -- 99
2019-10-03 07:00:00 11.6 3 Este 7 Sudeste 0 -- -- 99
2019-10-03 06:00:00 11.9 4 Sudeste 8 Este 0 -- -- 99
2019-10-03 05:00:00 12 4 Sudeste 7 Este 0 -- -- 99
2019-10-03 04:00:00 12 4 Este 6 Sur 0 -- -- 98
2019-10-03 03:00:00 13.1 4 Sudeste 6 Sudeste 0 -- -- 96
2019-10-03 02:00:00 13.3 3 Sudeste 5 Sudeste 0 -- -- 96
2019-10-03 01:00:00 14 2 Sur 6 Este 0 -- -- 94
2019-10-03 00:00:00 14.7 3 Sudeste 7 Sudeste 0 -- -- 94
2019-10-02 23:00:00 14.6 2 Este 5 Este 0 -- -- 93
2019-10-02 22:00:00 15.5 3 Sur 8 Sur 0 -- -- 90
2019-10-02 21:00:00 17.2 3 Sudoeste 9 Oeste 0 -- -- 84
2019-10-02 20:00:00 18.9 3 Oeste 11 Oeste 0 -- -- 79
2019-10-02 19:00:00 19.9 8 Oeste 14 Oeste 0 -- -- 71
2019-10-02 18:00:00 20.6 10 Noroeste 19 Noroeste 0 -- -- 69
2019-10-02 17:00:00 20.4 12 Oeste 18 Oeste 0 -- -- 68
2019-10-02 16:00:00 19.6 11 Noroeste 19 Oeste 0 -- -- 67
2019-10-02 15:00:00 19.5 8 Noroeste 17 Oeste 0 -- -- 69
2019-10-02 14:00:00 20 5 Noroeste 11 Sur 0 -- -- 66
2019-10-02 13:00:00 18.9 3 Nordeste 9 Este 0 -- -- 75
2019-10-02 12:00:00 17.7 4 Noroeste 10 Norte 0 -- -- 84
2019-10-02 11:00:00 16.7 4 Noroeste 11 Norte 0 -- -- 94
2019-10-02 10:00:00 15.9 3 Norte 8 Sudeste 0 -- -- 97
2019-10-02 09:00:00 15 0 Calma 5 Sudoeste 0 -- -- 99
2019-10-02 08:00:00 14.7 2 Sudeste 6 Sur 0 -- -- 99
2019-10-02 07:00:00 14.5 2 Sur 4 Este 0 -- -- 99
2019-10-02 06:00:00 14.2 3 Sudeste 6 Este 0 -- -- 100
2019-10-02 05:00:00 14 4 Este 10 Sur 0 -- -- 99
2019-10-02 04:00:00 14.3 3 Sudeste 7 Sur 0 -- -- 98
2019-10-02 03:00:00 14.9 3 Sudeste 5 Este 0 -- -- 96
2019-10-02 02:00:00 15.3 5 Este 6 Este 0 -- -- 95
2019-10-02 01:00:00 15.8 2 Sudeste 7 Sudoeste 0 -- -- 93
2019-10-02 00:00:00 16.6 3 Sur 4 Sur 0 -- -- 89
2019-10-01 23:00:00 17.3 3 Sur 12 Oeste 0 -- -- 86
2019-10-01 22:00:00 17.8 8 Oeste 17 Oeste 0 -- -- 83
2019-10-01 21:00:00 18.3 8 Oeste 17 Oeste 0 -- -- 87
2019-10-01 20:00:00 19 10 Oeste 22 Oeste 0 -- -- 84
2019-10-01 19:00:00 19.8 10 Oeste 21 Oeste 0 -- -- 79
2019-10-01 18:00:00 20.6 15 Oeste 23 Oeste 0 -- -- 73
2019-10-01 17:00:00 20.6 14 Oeste 30 Oeste 0 -- -- 79
2019-10-01 16:00:00 20.6 15 Oeste 31 Oeste 0 -- -- 80
2019-10-01 15:00:00 20.1 13 Oeste 26 Sudoeste 0 -- -- 83
2019-10-01 14:00:00 20.5 14 Oeste 23 Sudoeste 0 -- -- 84
2019-10-01 13:00:00 20.2 10 Oeste 24 Sudoeste 0 -- -- 87
2019-10-01 12:00:00 19.3 12 Oeste 23 Oeste 0 -- -- 93
2019-10-01 11:00:00 18.4 12 Sudoeste 20 Sudoeste 0 -- -- 99
2019-10-01 10:00:00 17.9 10 Sudoeste 18 Sudoeste 0 -- -- 100
2019-10-01 09:00:00 17.6 8 Sudoeste 19 Sudoeste 0 -- -- 100
2019-10-01 08:00:00 17.8 8 Sudoeste 16 Sudoeste 0 -- -- 100
2019-10-01 07:00:00 18 9 Sudoeste 22 Sudoeste 0 -- -- 100
2019-10-01 06:00:00 18.1 12 Sudoeste 24 Sudoeste 0 -- -- 99
2019-10-01 05:00:00 18.2 11 Sudoeste 23 Sudoeste 0.2 -- -- 97
2019-10-01 04:00:00 18.6 9 Sudoeste 23 Sudoeste 0 -- -- 91
2019-10-01 03:00:00 18.7 9 Sur 23 Sudoeste 0 -- -- 90
2019-10-01 02:00:00 18.7 10 Sur 22 Sur 0 -- -- 90
2019-10-01 01:00:00 19 7 Sur 22 Sur 0 -- -- 88
2019-10-01 00:00:00 19.2 7 Sudoeste 18 Sudoeste 0 -- -- 90
2019-09-30 23:00:00 19.2 9 Sur 16 Sur 0 -- -- 91
2019-09-30 22:00:00 19.3 8 Sur 15 Sudoeste 0 -- -- 92
2019-09-30 21:00:00 19.5 6 Sudoeste 14 Sudoeste 0 -- -- 95
2019-09-30 20:00:00 19.8 6 Sudoeste 17 Sudoeste 0 -- -- 93
2019-09-30 19:00:00 20.2 8 Sudoeste 19 Sudoeste 0 -- -- 91
2019-09-30 18:00:00 20.7 9 Sudoeste 19 Sudoeste 0 -- -- 89
2019-09-30 17:00:00 20.6 12 Sudoeste 22 Sudoeste 0 -- -- 91
2019-09-30 16:00:00 20.8 9 Sudoeste 17 Sudoeste 0 -- -- 94
2019-09-30 15:00:00 19.4 10 Sudoeste 22 Oeste 0 -- -- 100
2019-09-30 14:00:00 19 11 Sudoeste 26 Sudoeste 0 -- -- 100
2019-09-30 13:00:00 19.2 15 Sudoeste 27 Sudoeste 0.4 -- -- 99
2019-09-30 12:00:00 19.5 12 Sudoeste 26 Sudoeste 0.4 -- -- 98
2019-09-30 11:00:00 19.4 12 Sudoeste 26 Sudoeste 0 -- -- 100
2019-09-30 10:00:00 19 12 Sudoeste 24 Sudoeste 0.4 -- -- 100
2019-09-30 09:00:00 18.7 12 Sudoeste 24 Sur 0.2 -- -- 100
2019-09-30 08:00:00 18.7 12 Sudoeste 22 Sudoeste 0.8 -- -- 100
2019-09-30 07:00:00 18.8 9 Sudoeste 20 Sudoeste 0 -- -- 100
2019-09-30 06:00:00 18.6 6 Sudoeste 12 Sur 0 -- -- 100
2019-09-30 05:00:00 19.1 2 Sudoeste 18 Sur 0 -- -- 100
2019-09-30 04:00:00 18.9 8 Sur 18 Sur 0 -- -- 100
2019-09-30 03:00:00 18.8 11 Sudoeste 25 Sudoeste 0.4 -- -- 100
2019-09-30 02:00:00 18.6 10 Sudoeste 18 Sur 0.4 -- -- 100
2019-09-30 01:00:00 18.6 6 Sudoeste 15 Sur 0.6 -- -- 100
2019-09-30 00:00:00 18.5 9 Sudoeste 20 Sur 0.6 -- -- 100
2019-09-29 23:00:00 18.4 11 Sudoeste 24 Sudoeste 1 -- -- 100
2019-09-29 22:00:00 18.3 13 Sudoeste 25 Sur 0.2 -- -- 100
2019-09-29 21:00:00 18.3 12 Sudoeste 27 Sudoeste 0 -- -- 100
2019-09-29 20:00:00 18.4 16 Sudoeste 28 Sudoeste 1.2 -- -- 100
2019-09-29 19:00:00 18.4 14 Sudoeste 30 Sur 0.4 -- -- 99
2019-09-29 18:00:00 18.5 14 Sudoeste 32 Sudoeste 0.2 -- -- 99
2019-09-29 17:00:00 18.4 17 Sudoeste 37 Sudoeste 0.2 -- -- 99
2019-09-29 16:00:00 18.4 17 Sudoeste 36 Sudoeste 0.2 -- -- 99
2019-09-29 15:00:00 18.4 18 Sur 34 Sudoeste 2 -- -- 98
2019-09-29 14:00:00 18.6 21 Sur 46 Sur 0.6 -- -- 98
2019-09-29 13:00:00 18.5 18 Sur 44 Sudoeste 0.4 -- -- 97
2019-09-29 12:00:00 18.2 14 Sur 33 Sudoeste 0.6 -- -- 97
2019-09-29 11:00:00 18.1 13 Sur 30 Sur 0.8 -- -- 96
2019-09-29 10:00:00 18.4 9 Sur 30 Sur 0 -- -- 91
2019-09-29 09:00:00 17.7 9 Sudeste 24 Sur 0 -- -- 90
2019-09-29 08:00:00 17.4 13 Sur 25 Sur 0 -- -- 94
2019-09-29 07:00:00 17.1 13 Sur 24 Sur 0 -- -- 95
2019-09-29 06:00:00 17 13 Sur 26 Sur 0 -- -- 92
2019-09-29 05:00:00 17.1 9 Sur 19 Sur 0 -- -- 88
2019-09-29 04:00:00 16.3 6 Sur 18 Sur 0 -- -- 91
2019-09-29 03:00:00 14.5 4 Sudeste 12 Sudeste 0 -- -- 93
2019-09-29 02:00:00 14.6 4 Este 6 Este 0 -- -- 92
2019-09-29 01:00:00 14.6 3 Este 9 Este 0 -- -- 92
2019-09-29 00:00:00 13.9 4 Este 6 Este 0 -- -- 94
2019-09-28 23:00:00 14.1 4 Este 11 Sudeste 0 -- -- 92
2019-09-28 22:00:00 14.7 6 Sur 11 Sur 0 -- -- 91
2019-09-28 21:00:00 16.3 4 Sudoeste 14 Sudoeste 0 -- -- 84
2019-09-28 20:00:00 17.7 7 Sudoeste 17 Sudoeste 0 -- -- 75
2019-09-28 19:00:00 19.2 10 Sudoeste 19 Sudoeste 0 -- -- 69
2019-09-28 18:00:00 19.8 9 Oeste 22 Sudoeste 0 -- -- 68
2019-09-28 17:00:00 19.8 13 Oeste 22 Oeste 0 -- -- 66
2019-09-28 16:00:00 20.3 13 Oeste 23 Oeste 0 -- -- 64
2019-09-28 15:00:00 19.8 14 Noroeste 20 Oeste 0 -- -- 67
2019-09-28 14:00:00 18.8 6 Oeste 13 Oeste 0 -- -- 65
2019-09-28 13:00:00 17.7 8 Noroeste 11 Noroeste 0 -- -- 76
2019-09-28 12:00:00 16.4 3 Noroeste 8 Este 0 -- -- 84
2019-09-28 11:00:00 14.3 2 Este 6 Este 0 -- -- 89
2019-09-28 10:00:00 11.5 4 Oeste 7 Noroeste 0 -- -- 100
2019-09-28 09:00:00 10.1 0 Calma 5 Este 0 -- -- 100
2019-09-28 08:00:00 10.2 4 Este 8 Este 0 -- -- 100
2019-09-28 07:00:00 10.5 3 Este 6 Sudeste 0 -- -- 99
2019-09-28 06:00:00 11.1 0 Calma 5 Sudeste 0 -- -- 99
2019-09-28 05:00:00 11.2 4 Este 6 Este 0 -- -- 99
2019-09-28 04:00:00 11.7 2 Nordeste 5 Sudeste 0 -- -- 98
2019-09-28 03:00:00 12.6 5 Sudeste 5 Sudeste 0 -- -- 98
2019-09-28 02:00:00 12.9 4 Sudeste 8 Este 0 -- -- 98
2019-09-28 01:00:00 13.3 2 Este 4 Este 0 -- -- 97
2019-09-28 00:00:00 13.9 3 Sudeste 6 Sur 0 -- -- 95
2019-09-27 23:00:00 14.3 5 Este 7 Sur 0 -- -- 94
2019-09-27 22:00:00 15.5 4 Sudeste 6 Sudoeste 0 -- -- 89
2019-09-27 21:00:00 17.7 4 Noroeste 10 Oeste 0 -- -- 79
2019-09-27 20:00:00 19.1 8 Oeste 13 Oeste 0 -- -- 72
2019-09-27 19:00:00 20.2 10 Oeste 21 Oeste 0 -- -- 73
2019-09-27 18:00:00 20.7 10 Oeste 22 Oeste 0 -- -- 71
2019-09-27 17:00:00 20.7 12 Oeste 22 Oeste 0 -- -- 72
2019-09-27 16:00:00 20.3 13 Sudoeste 24 Sudoeste 0 -- -- 78
2019-09-27 15:00:00 20.1 10 Sudoeste 19 Sudoeste 0 -- -- 82
2019-09-27 14:00:00 19.4 9 Sudoeste 17 Oeste 0 -- -- 91
2019-09-27 13:00:00 18.8 10 Sudoeste 18 Sudoeste 0 -- -- 96
2019-09-27 12:00:00 17.9 13 Sudoeste 27 Sudoeste 0 -- -- 100
2019-09-27 11:00:00 17.5 14 Sudoeste 25 Sudoeste 0.2 -- -- 100
2019-09-27 10:00:00 17.4 12 Sudoeste 27 Sur 2.8 -- -- 99
2019-09-27 09:00:00 17.2 10 Sudoeste 22 Sur 1.6 -- -- 99
2019-09-27 08:00:00 17.3 7 Sudoeste 23 Sudoeste 5 -- -- 99
2019-09-27 07:00:00 17.4 8 Sur 22 Sur 0.8 -- -- 97
2019-09-27 06:00:00 17.7 12 Sur 28 Sur 0 -- -- 95
2019-09-27 05:00:00 17.7 10 Sur 21 Sur 0 -- -- 96
2019-09-27 04:00:00 18 10 Sudoeste 26 Sur 0 -- -- 92
2019-09-27 03:00:00 18 10 Sur 21 Sur 0 -- -- 93
2019-09-27 02:00:00 18 9 Sur 16 Sudoeste 0 -- -- 93
2019-09-27 01:00:00 18 8 Sur 18 Sudoeste 0 -- -- 92
2019-09-27 00:00:00 18 8 Sudoeste 17 Sudoeste 0 -- -- 90
2019-09-26 23:00:00 18.1 8 Sudoeste 17 Sudoeste 0 -- -- 88
2019-09-26 22:00:00 18.1 8 Sur 18 Sur 0 -- -- 86
2019-09-26 21:00:00 18.8 7 Sudoeste 21 Sudoeste 0 -- -- 83
2019-09-26 20:00:00 19 9 Sudoeste 22 Sudoeste 0 -- -- 81
2019-09-26 19:00:00 19.4 12 Sudoeste 25 Sudoeste 0 -- -- 77
2019-09-26 18:00:00 19.9 15 Sudoeste 26 Sudoeste 0 -- -- 72
2019-09-26 17:00:00 20.4 12 Sudoeste 27 Sudoeste 0 -- -- 72
2019-09-26 16:00:00 20.5 15 Oeste 27 Sudoeste 0 -- -- 68
2019-09-26 15:00:00 20.8 16 Sudoeste 29 Sudoeste 0 -- -- 71
2019-09-26 14:00:00 20.3 15 Sudoeste 28 Sudoeste 0 -- -- 74
2019-09-26 13:00:00 20.6 12 Sudoeste 26 Sudoeste 0 -- -- 75
2019-09-26 12:00:00 19.3 15 Sudoeste 24 Sudoeste 0 -- -- 85
2019-09-26 11:00:00 18.7 11 Sudoeste 23 Oeste 0 -- -- 88
2019-09-26 10:00:00 17.8 10 Sur 19 Sur 0 -- -- 91
2019-09-26 09:00:00 17.2 9 Sur 17 Sudoeste 0 -- -- 93
2019-09-26 08:00:00 17.2 9 Sudoeste 16 Sudoeste 0 -- -- 93
2019-09-26 07:00:00 17.2 7 Sudoeste 17 Sur 0 -- -- 94
2019-09-26 06:00:00 17.1 8 Sudoeste 18 Sur 0 -- -- 95
2019-09-26 05:00:00 17.1 9 Sudoeste 18 Sur 0 -- -- 96
2019-09-26 04:00:00 17.2 9 Sudoeste 19 Sur 0 -- -- 96
2019-09-26 03:00:00 17.1 9 Sudoeste 15 Sur 0 -- -- 96
2019-09-26 02:00:00 17.3 8 Sudoeste 14 Sudoeste 0 -- -- 95
2019-09-26 01:00:00 17.4 8 Sur 17 Sur 0 -- -- 94
2019-09-26 00:00:00 17.4 9 Sudoeste 15 Sudoeste 0 -- -- 93
2019-09-25 23:00:00 17.6 6 Sudoeste 14 Sudoeste 0 -- -- 93
2019-09-25 22:00:00 17.6 9 Sudoeste 18 Sudoeste 0 -- -- 92
2019-09-25 21:00:00 17.7 9 Sudoeste 19 Sudoeste 0 -- -- 92
2019-09-25 20:00:00 17.8 9 Sudoeste 22 Sudoeste 0 -- -- 89
2019-09-25 19:00:00 18.8 11 Sudoeste 27 Oeste 0 -- -- 83
2019-09-25 18:00:00 19.3 13 Sudoeste 28 Sudoeste 0 -- -- 82
2019-09-25 17:00:00 19.9 14 Sudoeste 26 Sudoeste 0 -- -- 77
2019-09-25 16:00:00 19.5 15 Sudoeste 25 Sudoeste 0 -- -- 78
2019-09-25 15:00:00 19.6 14 Sudoeste 27 Sudoeste 0 -- -- 76
2019-09-25 14:00:00 19.3 12 Sudoeste 24 Sudoeste 0 -- -- 77
2019-09-25 13:00:00 18.5 13 Sudoeste 20 Sudoeste 0 -- -- 82
2019-09-25 12:00:00 18.5 10 Sudoeste 19 Sudoeste 0 -- -- 83
2019-09-25 11:00:00 17.7 9 Sudoeste 17 Sur 0 -- -- 89
2019-09-25 10:00:00 16.8 8 Sudoeste 15 Sudoeste 0 -- -- 90
2019-09-25 09:00:00 15.8 8 Sudoeste 13 Sudoeste 0 -- -- 95
2019-09-25 08:00:00 15.8 6 Sudoeste 18 Sudoeste 0 -- -- 96
2019-09-25 07:00:00 16.3 9 Sudoeste 18 Sudoeste 0 -- -- 96
2019-09-25 06:00:00 16.4 7 Sudoeste 15 Sudoeste 0 -- -- 95
2019-09-25 05:00:00 16.1 8 Sudoeste 15 Sur 0 -- -- 96
2019-09-25 04:00:00 15.9 5 Sur 14 Sudoeste 0 -- -- 96
2019-09-25 03:00:00 16.1 9 Sudoeste 17 Sudoeste 0 -- -- 95
2019-09-25 02:00:00 16.3 10 Sudoeste 16 Sudoeste 0 -- -- 92
2019-09-25 01:00:00 16.5 9 Sudoeste 15 Sudoeste 0 -- -- 90
2019-09-25 00:00:00 16.6 8 Sudoeste 18 Sudoeste 0 -- -- 92
2019-09-24 23:00:00 16.7 10 Sudoeste 18 Sudoeste 0 -- -- 92
2019-09-24 22:00:00 16.7 4 Sur 9 Sudoeste 0 -- -- 91
2019-09-24 21:00:00 17.6 5 Sudoeste 15 Oeste 0 -- -- 88
2019-09-24 20:00:00 18.3 8 Sudoeste 20 Oeste 0 -- -- 83
2019-09-24 19:00:00 19.2 10 Oeste 25 Sudoeste 0 -- -- 79
2019-09-24 18:00:00 19.1 10 Oeste 30 Oeste 0.8 -- -- 90
2019-09-24 17:00:00 20.6 14 Oeste 27 Sudoeste 0 -- -- 76
2019-09-24 16:00:00 20 13 Oeste 24 Oeste 0 -- -- 81
2019-09-24 15:00:00 19.3 8 Oeste 23 Sudoeste 0 -- -- 93
2019-09-24 14:00:00 18.9 14 Sudoeste 27 Sudoeste 0 -- -- 94
2019-09-24 13:00:00 19 11 Sudoeste 21 Sudoeste 0 -- -- 96
2019-09-24 12:00:00 18.2 13 Sudoeste 21 Sudoeste 0 -- -- 100
2019-09-24 11:00:00 18 12 Sudoeste 19 Sudoeste 0 -- -- 100
2019-09-24 10:00:00 17.7 9 Sudoeste 16 Oeste 0 -- -- 100
2019-09-24 09:00:00 17.5 9 Sudoeste 19 Sudoeste 0 -- -- 100
2019-09-24 08:00:00 17.8 12 Oeste 25 Oeste 0 -- -- 100
2019-09-24 07:00:00 18 13 Oeste 36 Sur 0.2 -- -- 100
2019-09-24 06:00:00 17.7 23 Sudoeste 50 Sudoeste 1.4 -- -- 100
2019-09-24 05:00:00 18.3 26 Sudoeste 56 Sudoeste 1.6 -- -- 99
2019-09-24 04:00:00 18.5 25 Sur 53 Sudoeste 8.8 -- -- 99
2019-09-24 03:00:00 18.5 21 Sudoeste 43 Sudoeste 9 -- -- 99
2019-09-24 02:00:00 18.4 16 Sur 46 Sur 3.2 -- -- 97
2019-09-24 01:00:00 18.3 21 Sur 44 Sudoeste 0.4 -- -- 96
2019-09-24 00:00:00 18.1 18 Sur 42 Sur 0.8 -- -- 96
2019-09-23 23:00:00 18 26 Sur 46 Sur 0.8 -- -- 97
2019-09-23 22:00:00 17.8 22 Sur 44 Sur 0.8 -- -- 96
2019-09-23 21:00:00 17.8 19 Sur 45 Sur 2.2 -- -- 95
2019-09-23 20:00:00 18.1 26 Sur 42 Sur 0.4 -- -- 92
2019-09-23 19:00:00 18.7 19 Sur 45 Sur 0 -- -- 87
2019-09-23 18:00:00 17.8 27 Sur 49 Sur 0.2 -- -- 94
2019-09-23 17:00:00 17.9 14 Sur 53 Sur 0.6 -- -- 93
2019-09-23 16:00:00 18.2 18 Sur 45 Sur 0.2 -- -- 89
2019-09-23 15:00:00 18.9 25 Sur 45 Sudoeste 0.2 -- -- 84
2019-09-23 14:00:00 18.5 20 Sudoeste 50 Sudoeste 0.2 -- -- 87
2019-09-23 13:00:00 19.1 18 Sur 42 Sudoeste 0 -- -- 84
2019-09-23 12:00:00 19.5 15 Sur 38 Sudeste 0 -- -- 77
2019-09-23 11:00:00 18.8 17 Sur 40 Sudeste 0 -- -- 81
2019-09-23 10:00:00 17.8 18 Sur 33 Sur 0 -- -- 84
2019-09-23 09:00:00 17.4 14 Sur 30 Sur 0 -- -- 84
2019-09-23 08:00:00 17.3 13 Sur 25 Sur 0 -- -- 85
2019-09-23 07:00:00 17.2 14 Sur 27 Sur 0 -- -- 87
2019-09-23 06:00:00 16.9 10 Sur 30 Sur 0 -- -- 87
2019-09-23 05:00:00 16.8 12 Sur 24 Sur 0 -- -- 87
2019-09-23 04:00:00 16.6 11 Sur 22 Sur 0 -- -- 89
2019-09-23 03:00:00 16.4 8 Sur 22 Sur 0 -- -- 91
2019-09-23 02:00:00 16.5 10 Sur 24 Sur 0 -- -- 93
2019-09-23 01:00:00 16.7 9 Sur 19 Sur 0 -- -- 92
2019-09-23 00:00:00 16.7 6 Sur 15 Sur 0 -- -- 92
2019-09-22 23:00:00 17.1 10 Sur 16 Sur 0 -- -- 89
2019-09-22 22:00:00 16.9 6 Sur 17 Sur 0 -- -- 90
2019-09-22 21:00:00 17.1 6 Sur 15 Sudoeste 0 -- -- 89
2019-09-22 20:00:00 17.9 13 Sudoeste 26 Sudoeste 0 -- -- 86
2019-09-22 19:00:00 18.8 13 Sudoeste 27 Sudoeste 0 -- -- 83
2019-09-22 18:00:00 19.4 16 Sudoeste 32 Sudoeste 0 -- -- 79
2019-09-22 17:00:00 20.1 17 Sudoeste 32 Sudoeste 0 -- -- 74
2019-09-22 16:00:00 20.5 15 Oeste 37 Sudoeste 0 -- -- 72
2019-09-22 15:00:00 19.6 21 Sudoeste 35 Oeste 0 -- -- 77
2019-09-22 14:00:00 19.3 19 Sudoeste 33 Sudoeste 0 -- -- 80
2019-09-22 13:00:00 19.3 14 Sudoeste 30 Sudoeste 0 -- -- 81
2019-09-22 12:00:00 18.7 14 Sudoeste 29 Sudoeste 0 -- -- 85
2019-09-22 11:00:00 18 13 Sudoeste 23 Sudoeste 0 -- -- 87
2019-09-22 10:00:00 16.5 12 Sudoeste 22 Sudoeste 0 -- -- 92
2019-09-22 09:00:00 16 11 Sudoeste 26 Sudoeste 0 -- -- 92
2019-09-22 08:00:00 16 14 Sudoeste 24 Sudoeste 0 -- -- 91
2019-09-22 07:00:00 15.9 15 Sudoeste 26 Sur 0 -- -- 90
2019-09-22 06:00:00 15.6 11 Sudoeste 22 Sudoeste 0 -- -- 93
2019-09-22 05:00:00 15.6 10 Sudoeste 23 Sur 0 -- -- 95
2019-09-22 04:00:00 15.7 10 Sudoeste 19 Sudoeste 0 -- -- 97
2019-09-22 03:00:00 15.7 10 Sudoeste 25 Sudoeste 0 -- -- 97
2019-09-22 02:00:00 15.7 13 Sudoeste 24 Sur 0.2 -- -- 96
2019-09-22 01:00:00 15.5 11 Sudoeste 37 Sudoeste 0.6 -- -- 93
2019-09-22 00:00:00 17.3 15 Sudoeste 36 Sur 0.6 -- -- 94